Laytonville, California
Current Conditions -  °F | °C
As of 8:10 AM on Saturday 25 Oct 2014 (Local Time) from KUKI Reporting Station
Light Rain Light Rain  
Wind Chill: 58°   Ceiling: 3200
Heat Index: 58°   Visibility: 10mi
Dew Point: 54°   Wind: 9mph
Humidity: 87%   Direction: 140°SE
Pressure: 29.9"   Gusts: NA
Location:  39.69°N, 123.49°W
Report Text: KUKI 251510Z AUTO 14008KT 10SM -RA FEW025 BKN032 OVC049 14/12 A2990 RMK AO2 P0000 T01440122
Loading
Personal Weather Stations






























Interactive Weather Map
Tropical Storm Tracking
New forecast layout! Learn more

10-Day Weather Forecast

Advertisements
Track Severe Weather on mobile